Nearby METAR Reports

 

KAIK - Aiken, South Carolina, USA
Distance from station: NE 8mi, 13km
Updated: Fri, 27-Jan-2023 11:35 EST
Clear
Clear
 Wind from W
Wind: W 20 km/h
Temperature: 46°F , 8°C
Wind Chill: 40°F , 4°C
Dew Point: 25°F , -4°C
Humidity: 43%
Barometer: 30.32 inHg , 1026.8 hPa
Clouds: Clear
Visibility: 16 km
2023/01/27 16:35 KAIK 271635Z AUTO 27011KT 10SM CLR 08/M04 A3032 RMK AO2 T00791044
KDNL - Augusta/Daniel, Georgia, USA
Distance from station: WSW 16mi, 26km
Updated: Fri, 27-Jan-2023 10:53 EST
Clear
Clear
 Wind from WNW
Wind: WNW 15 km/h
Temperature: 43°F , 6°C
Wind Chill: 38°F , 3°C
Dew Point: 21°F , -6°C
Humidity: 42%
Barometer: 30.35 inHg , 1027.8 hPa
Clouds: Clear
Visibility: 16 km
2023/01/27 15:53 KDNL 271553Z AUTO 29008KT 10SM CLR 06/M06 A3035 RMK AO2 SLP277 T00611056
KAGS - Augusta/Bush, Georgia, USA
Distance from station: SW 18mi, 28km
Updated: Fri, 27-Jan-2023 10:53 EST
Clear
Clear
 Wind from NW
Wind: NW 17 km/h
Temperature: 45°F , 7°C
Wind Chill: 40°F , 4°C
Dew Point: 23°F , -5°C
Humidity: 42%
Barometer: 30.35 inHg , 1027.8 hPa
Clouds: Clear
Visibility: 16 km
2023/01/27 15:53 KAGS 271553Z 31009KT 270V340 10SM CLR 07/M05 A3035 RMK AO2 SLP276 T00721050
 
KBNL - Barnwell, South Carolina, USA
Distance from station: SE 33mi, 52km
Updated: Fri, 27-Jan-2023 11:55 EST
Clear
Clear
 Wind from SW
Wind: SW 11 km/h
Temperature: 45°F , 7°C
Wind Chill: 41°F , 5°C
Dew Point: 30°F , -1°C
Humidity: 57%
Barometer: 30.33 inHg , 1027.1 hPa
Clouds: Clear
Visibility: 16 km
2023/01/27 16:55 KBNL 271655Z AUTO 23006KT 10SM CLR 07/M01 A3033 RMK AO2
KXNO - North Af Auxfld, South Carolina, USA
Distance from station: E 41mi, 66km
Updated: Fri, 27-Jan-2023 10:55 EST
Clear
Clear
 Wind from W
Wind: W 15 km/h
Temperature: 43°F , 6°C
Wind Chill: 38°F , 3°C
Dew Point: 34°F , 1°C
Humidity: 71%
Barometer: 30.32 inHg , 1026.8 hPa
Clouds: Clear
Visibility: 16 km
2023/01/27 15:55 KXNO 271555Z AUTO 28008KT 10SM CLR 06/01 A3032 RMK AO2 SLP272 T00560013 $
KHQU - Mcduffie/Thomson, Georgia, USA
Distance from station: W 42mi, 68km
Updated: Fri, 27-Jan-2023 11:35 EST
Clear
Clear
 Wind from WNW
Wind: WNW 15 km/h
Temperature: 45°F , 7°C
Wind Chill: 40°F , 4°C
Dew Point: 19°F , -7°C
Humidity: 37%
Barometer: 30.35 inHg , 1027.8 hPa
Clouds: Clear
Visibility: 16 km
2023/01/27 16:35 KHQU 271635Z AUTO 29008KT 10SM CLR 07/M07 A3035 RMK AO2 T00671072
 
KCAE - Columbia, South Carolina, USA
Distance from station: ENE 46mi, 74km
Updated: Fri, 27-Jan-2023 10:56 EST
Few Clouds
Few Clouds
 Wind from varies
Wind: varies 6 km/h
Temperature: 45°F , 7°C
Dew Point: 28°F , -2°C
Humidity: 53%
Barometer: 30.31 inHg , 1026.4 hPa
Clouds: Few Clouds
Visibility: 16 km
Cloud details: Few Clouds 15000 ft
2023/01/27 15:56 KCAE 271556Z VRB03KT 10SM FEW150 07/M02 A3031 RMK AO2 SLP264 T00721022
K2J5 - Millen, Georgia, USA
Distance from station: SSW 48mi, 77km
Updated: Fri, 27-Jan-2023 11:35 EST
Clear
Clear
 Wind from WSW
Wind: WSW 13 km/h
Temperature: 43°F , 6°C
Wind Chill: 38°F , 3°C
Dew Point: 30°F , -1°C
Humidity: 61%
Barometer: 30.37 inHg , 1028.4 hPa
Clouds: Clear
Visibility: 16 km
2023/01/27 16:35 K2J5 271635Z AUTO 25007KT 110V330 10SM CLR 06/M01 A3037 RMK AO2 T00601013
KAQX - Allendale, South Carolina, USA
Distance from station: SE 50mi, 80km
Updated: Fri, 27-Jan-2023 11:35 EST
Clear
Clear
 Wind from varies
Wind: varies 9 km/h
Temperature: 45°F , 7°C
Wind Chill: 42°F , 6°C
Barometer: 30.34 inHg , 1027.4 hPa
Clouds: Clear
Visibility: 16 km
2023/01/27 16:35 KAQX 271635Z AUTO VRB05KT 10SM CLR 07/ A3034 RMK AO2